EGLC - London City Airport
Distance from station: E 5mi, 14km
Updated: 10/22/2017 3:50pm
Clear
Clear
 Wind from WSW
Wind: WSW 10 mph , 17 km/h
Temperature: 52°F , 11°C
Dew Point: 46°F , 8°C
Humidity: 82%
Barometer: 30.06 inHg , 1018 hPa
Clouds: Clear
Visibility: 6 miles , 10 km
2017/10/22 22:50 EGLC 222250Z AUTO 24009KT 9999 NCD 11/08 Q1018